sensor_id;sensor_type;location;lat;lon;timestamp;temperature;humidity
59505;DHT22;45321;53.200;5.814;2023-07-20T00:00:55;17.20;77.10
59505;DHT22;45321;53.200;5.814;2023-07-20T00:03:21;17.20;76.70
59505;DHT22;45321;53.200;5.814;2023-07-20T00:05:51;17.10;76.60
59505;DHT22;45321;53.200;5.814;2023-07-20T00:08:17;17.10;76.80
59505;DHT22;45321;53.200;5.814;2023-07-20T00:10:43;17.10;76.80
59505;DHT22;45321;53.200;5.814;2023-07-20T00:13:13;17.00;76.60
59505;DHT22;45321;53.200;5.814;2023-07-20T00:15:39;17.00;76.90
59505;DHT22;45321;53.200;5.814;2023-07-20T00:18:05;17.00;76.60
59505;DHT22;45321;53.200;5.814;2023-07-20T00:20:31;17.00;76.80
59505;DHT22;45321;53.200;5.814;2023-07-20T00:22:57;17.00;76.90
59505;DHT22;45321;53.200;5.814;2023-07-20T00:25:24;16.90;77.00
59505;DHT22;45321;53.200;5.814;2023-07-20T00:27:50;16.90;76.80
59505;DHT22;45321;53.200;5.814;2023-07-20T00:30:16;16.90;76.80
59505;DHT22;45321;53.200;5.814;2023-07-20T00:32:42;16.90;76.80
59505;DHT22;45321;53.200;5.814;2023-07-20T00:35:08;16.80;76.90
59505;DHT22;45321;53.200;5.814;2023-07-20T00:37:35;16.80;76.80
59505;DHT22;45321;53.200;5.814;2023-07-20T00:40:01;16.80;76.60
59505;DHT22;45321;53.200;5.814;2023-07-20T00:42:26;16.80;76.50
59505;DHT22;45321;53.200;5.814;2023-07-20T00:44:52;16.70;76.50
59505;DHT22;45321;53.200;5.814;2023-07-20T00:47:18;16.70;76.80
59505;DHT22;45321;53.200;5.814;2023-07-20T00:49:44;16.70;76.50
59505;DHT22;45321;53.200;5.814;2023-07-20T00:52:11;16.70;76.80
59505;DHT22;45321;53.200;5.814;2023-07-20T00:54:40;16.70;76.80
59505;DHT22;45321;53.200;5.814;2023-07-20T00:57:07;16.60;76.60
59505;DHT22;45321;53.200;5.814;2023-07-20T00:59:34;16.60;76.40
59505;DHT22;45321;53.200;5.814;2023-07-20T01:02:01;16.60;76.60
59505;DHT22;45321;53.200;5.814;2023-07-20T01:04:27;16.50;76.70
59505;DHT22;45321;53.200;5.814;2023-07-20T01:09:34;16.50;76.60
59505;DHT22;45321;53.200;5.814;2023-07-20T01:12:26;16.50;76.20
59505;DHT22;45321;53.200;5.814;2023-07-20T01:14:53;16.40;76.80
59505;DHT22;45321;53.200;5.814;2023-07-20T01:17:19;16.50;76.40
59505;DHT22;45321;53.200;5.814;2023-07-20T01:19:45;16.40;76.80
59505;DHT22;45321;53.200;5.814;2023-07-20T01:25:11;16.30;76.80
59505;DHT22;45321;53.200;5.814;2023-07-20T01:30:55;16.30;76.80
59505;DHT22;45321;53.200;5.814;2023-07-20T01:33:22;16.30;76.70
59505;DHT22;45321;53.200;5.814;2023-07-20T01:35:56;16.20;76.60
59505;DHT22;45321;53.200;5.814;2023-07-20T01:38:24;16.20;76.60
59505;DHT22;45321;53.200;5.814;2023-07-20T01:40:50;16.20;76.60
59505;DHT22;45321;53.200;5.814;2023-07-20T01:43:17;16.20;76.90
59505;DHT22;45321;53.200;5.814;2023-07-20T01:45:43;16.20;76.70
59505;DHT22;45321;53.200;5.814;2023-07-20T01:48:09;16.20;77.00
59505;DHT22;45321;53.200;5.814;2023-07-20T01:50:35;16.20;76.60
59505;DHT22;45321;53.200;5.814;2023-07-20T01:53:01;16.20;77.20
59505;DHT22;45321;53.200;5.814;2023-07-20T01:55:27;16.10;77.10
59505;DHT22;45321;53.200;5.814;2023-07-20T01:57:53;16.10;76.70
59505;DHT22;45321;53.200;5.814;2023-07-20T02:00:19;16.10;76.60
59505;DHT22;45321;53.200;5.814;2023-07-20T02:02:47;16.10;76.70
59505;DHT22;45321;53.200;5.814;2023-07-20T02:05:12;16.10;77.00
59505;DHT22;45321;53.200;5.814;2023-07-20T02:07:38;16.00;76.90
59505;DHT22;45321;53.200;5.814;2023-07-20T02:10:05;16.00;76.80
59505;DHT22;45321;53.200;5.814;2023-07-20T02:12:31;16.00;76.90
59505;DHT22;45321;53.200;5.814;2023-07-20T02:14:57;16.00;77.00
59505;DHT22;45321;53.200;5.814;2023-07-20T02:17:22;16.00;77.40
59505;DHT22;45321;53.200;5.814;2023-07-20T02:19:52;16.00;77.30
59505;DHT22;45321;53.200;5.814;2023-07-20T02:22:17;16.00;77.50
59505;DHT22;45321;53.200;5.814;2023-07-20T02:24:43;16.00;77.40
59505;DHT22;45321;53.200;5.814;2023-07-20T02:27:09;16.00;77.60
59505;DHT22;45321;53.200;5.814;2023-07-20T02:29:35;16.00;77.30
59505;DHT22;45321;53.200;5.814;2023-07-20T02:32:02;15.90;77.40
59505;DHT22;45321;53.200;5.814;2023-07-20T02:34:28;15.90;77.20
59505;DHT22;45321;53.200;5.814;2023-07-20T02:36:54;15.90;77.30
59505;DHT22;45321;53.200;5.814;2023-07-20T02:39:24;15.80;77.80
59505;DHT22;45321;53.200;5.814;2023-07-20T02:41:49;15.80;77.80
59505;DHT22;45321;53.200;5.814;2023-07-20T02:44:15;15.80;77.50
59505;DHT22;45321;53.200;5.814;2023-07-20T02:46:41;15.80;77.70
59505;DHT22;45321;53.200;5.814;2023-07-20T02:49:07;15.70;77.50
59505;DHT22;45321;53.200;5.814;2023-07-20T02:51:32;15.70;77.60
59505;DHT22;45321;53.200;5.814;2023-07-20T02:53:58;15.80;78.10
59505;DHT22;45321;53.200;5.814;2023-07-20T02:56:24;15.70;77.90
59505;DHT22;45321;53.200;5.814;2023-07-20T02:58:50;15.70;78.10
59505;DHT22;45321;53.200;5.814;2023-07-20T03:01:16;15.70;78.00
59505;DHT22;45321;53.200;5.814;2023-07-20T03:03:42;15.70;78.00
59505;DHT22;45321;53.200;5.814;2023-07-20T03:06:15;15.70;78.00
59505;DHT22;45321;53.200;5.814;2023-07-20T03:08:42;15.60;77.90
59505;DHT22;45321;53.200;5.814;2023-07-20T03:11:13;15.60;78.20
59505;DHT22;45321;53.200;5.814;2023-07-20T03:13:41;15.60;78.10
59505;DHT22;45321;53.200;5.814;2023-07-20T03:16:08;15.50;78.20
59505;DHT22;45321;53.200;5.814;2023-07-20T03:18:40;15.50;78.20
59505;DHT22;45321;53.200;5.814;2023-07-20T03:21:09;15.50;78.10
59505;DHT22;45321;53.200;5.814;2023-07-20T03:23:37;15.50;78.10
59505;DHT22;45321;53.200;5.814;2023-07-20T03:26:03;15.40;78.50
59505;DHT22;45321;53.200;5.814;2023-07-20T03:28:29;15.50;78.60
59505;DHT22;45321;53.200;5.814;2023-07-20T03:30:55;15.50;78.70
59505;DHT22;45321;53.200;5.814;2023-07-20T03:33:28;15.40;78.90
59505;DHT22;45321;53.200;5.814;2023-07-20T03:35:55;15.40;78.70
59505;DHT22;45321;53.200;5.814;2023-07-20T03:38:22;15.40;78.90
59505;DHT22;45321;53.200;5.814;2023-07-20T03:40:55;15.40;79.10
59505;DHT22;45321;53.200;5.814;2023-07-20T03:43:22;15.50;78.60
59505;DHT22;45321;53.200;5.814;2023-07-20T03:45:48;15.50;78.70
59505;DHT22;45321;53.200;5.814;2023-07-20T03:48:33;15.50;78.80
59505;DHT22;45321;53.200;5.814;2023-07-20T03:50:59;15.50;79.10
59505;DHT22;45321;53.200;5.814;2023-07-20T03:53:25;15.50;78.80
59505;DHT22;45321;53.200;5.814;2023-07-20T03:55:52;15.40;78.80
59505;DHT22;45321;53.200;5.814;2023-07-20T03:58:19;15.40;78.80
59505;DHT22;45321;53.200;5.814;2023-07-20T04:00:49;15.40;78.80
59505;DHT22;45321;53.200;5.814;2023-07-20T04:03:16;15.40;79.00
59505;DHT22;45321;53.200;5.814;2023-07-20T04:05:43;15.40;79.00
59505;DHT22;45321;53.200;5.814;2023-07-20T04:08:10;15.30;79.10
59505;DHT22;45321;53.200;5.814;2023-07-20T04:10:37;15.30;78.90
59505;DHT22;45321;53.200;5.814;2023-07-20T04:13:03;15.40;78.70
59505;DHT22;45321;53.200;5.814;2023-07-20T04:15:29;15.40;78.80
59505;DHT22;45321;53.200;5.814;2023-07-20T04:17:55;15.40;79.30
59505;DHT22;45321;53.200;5.814;2023-07-20T04:20:25;15.40;79.30
59505;DHT22;45321;53.200;5.814;2023-07-20T04:22:50;15.40;79.30
59505;DHT22;45321;53.200;5.814;2023-07-20T04:25:17;15.50;79.10
59505;DHT22;45321;53.200;5.814;2023-07-20T04:27:43;15.50;79.30
59505;DHT22;45321;53.200;5.814;2023-07-20T04:30:10;15.50;79.10
59505;DHT22;45321;53.200;5.814;2023-07-20T04:32:37;15.50;79.40
59505;DHT22;45321;53.200;5.814;2023-07-20T04:35:06;15.50;79.20
59505;DHT22;45321;53.200;5.814;2023-07-20T04:37:33;15.50;79.30
59505;DHT22;45321;53.200;5.814;2023-07-20T04:39:59;15.60;79.50
59505;DHT22;45321;53.200;5.814;2023-07-20T04:42:25;15.60;79.50
59505;DHT22;45321;53.200;5.814;2023-07-20T04:44:50;15.60;79.60
59505;DHT22;45321;53.200;5.814;2023-07-20T04:47:16;15.60;79.40
59505;DHT22;45321;53.200;5.814;2023-07-20T04:49:42;15.60;79.50
59505;DHT22;45321;53.200;5.814;2023-07-20T04:52:08;15.70;79.60
59505;DHT22;45321;53.200;5.814;2023-07-20T04:54:33;15.70;79.90
59505;DHT22;45321;53.200;5.814;2023-07-20T04:56:59;15.70;79.80
59505;DHT22;45321;53.200;5.814;2023-07-20T04:59:25;15.70;79.80
59505;DHT22;45321;53.200;5.814;2023-07-20T05:01:50;15.70;79.70
59505;DHT22;45321;53.200;5.814;2023-07-20T05:04:16;15.70;80.00
59505;DHT22;45321;53.200;5.814;2023-07-20T05:06:42;15.70;79.70
59505;DHT22;45321;53.200;5.814;2023-07-20T05:09:08;15.70;79.70
59505;DHT22;45321;53.200;5.814;2023-07-20T05:11:33;15.80;80.00
59505;DHT22;45321;53.200;5.814;2023-07-20T05:14:00;15.80;80.10
59505;DHT22;45321;53.200;5.814;2023-07-20T05:16:26;15.80;79.90
59505;DHT22;45321;53.200;5.814;2023-07-20T05:18:51;15.80;79.80
59505;DHT22;45321;53.200;5.814;2023-07-20T05:21:17;15.80;80.00
59505;DHT22;45321;53.200;5.814;2023-07-20T05:23:43;15.80;80.00
59505;DHT22;45321;53.200;5.814;2023-07-20T05:26:09;15.90;80.00
59505;DHT22;45321;53.200;5.814;2023-07-20T05:28:34;15.90;80.00
59505;DHT22;45321;53.200;5.814;2023-07-20T05:31:03;15.90;80.00
59505;DHT22;45321;53.200;5.814;2023-07-20T05:33:28;15.90;80.20
59505;DHT22;45321;53.200;5.814;2023-07-20T05:35:57;16.00;79.90
59505;DHT22;45321;53.200;5.814;2023-07-20T05:38:23;16.10;79.90
59505;DHT22;45321;53.200;5.814;2023-07-20T05:40:49;16.10;79.70
59505;DHT22;45321;53.200;5.814;2023-07-20T05:43:15;16.10;79.80
59505;DHT22;45321;53.200;5.814;2023-07-20T05:45:44;16.10;79.60
59505;DHT22;45321;53.200;5.814;2023-07-20T05:48:10;16.20;79.60
59505;DHT22;45321;53.200;5.814;2023-07-20T05:50:38;16.20;79.50
59505;DHT22;45321;53.200;5.814;2023-07-20T05:53:03;16.20;79.20
59505;DHT22;45321;53.200;5.814;2023-07-20T05:55:29;16.20;79.30
59505;DHT22;45321;53.200;5.814;2023-07-20T05:57:55;16.20;79.50
59505;DHT22;45321;53.200;5.814;2023-07-20T06:00:21;16.30;79.40
59505;DHT22;45321;53.200;5.814;2023-07-20T06:02:52;16.30;79.60
59505;DHT22;45321;53.200;5.814;2023-07-20T06:05:19;16.30;79.40
59505;DHT22;45321;53.200;5.814;2023-07-20T06:07:45;16.30;79.00
59505;DHT22;45321;53.200;5.814;2023-07-20T06:10:11;16.30;79.20
59505;DHT22;45321;53.200;5.814;2023-07-20T06:12:37;16.30;79.20
59505;DHT22;45321;53.200;5.814;2023-07-20T06:15:04;16.40;79.00
59505;DHT22;45321;53.200;5.814;2023-07-20T06:17:30;16.40;78.60
59505;DHT22;45321;53.200;5.814;2023-07-20T06:19:56;16.40;77.70
59505;DHT22;45321;53.200;5.814;2023-07-20T06:22:25;16.50;77.30
59505;DHT22;45321;53.200;5.814;2023-07-20T06:24:50;16.50;77.10
59505;DHT22;45321;53.200;5.814;2023-07-20T06:27:16;16.50;77.80
59505;DHT22;45321;53.200;5.814;2023-07-20T06:29:42;16.60;76.80
59505;DHT22;45321;53.200;5.814;2023-07-20T06:32:08;16.70;76.80
59505;DHT22;45321;53.200;5.814;2023-07-20T06:34:34;16.70;76.80
59505;DHT22;45321;53.200;5.814;2023-07-20T06:37:03;16.70;76.60
59505;DHT22;45321;53.200;5.814;2023-07-20T06:39:29;16.80;76.40
59505;DHT22;45321;53.200;5.814;2023-07-20T06:41:55;16.80;76.40
59505;DHT22;45321;53.200;5.814;2023-07-20T06:44:21;16.90;76.60
59505;DHT22;45321;53.200;5.814;2023-07-20T06:46:46;17.00;76.60
59505;DHT22;45321;53.200;5.814;2023-07-20T06:49:27;17.00;76.10
59505;DHT22;45321;53.200;5.814;2023-07-20T06:51:53;17.20;75.60
59505;DHT22;45321;53.200;5.814;2023-07-20T06:54:21;17.30;75.30
59505;DHT22;45321;53.200;5.814;2023-07-20T06:56:47;17.30;74.90
59505;DHT22;45321;53.200;5.814;2023-07-20T06:59:13;17.50;73.60
59505;DHT22;45321;53.200;5.814;2023-07-20T07:01:39;17.50;73.80
59505;DHT22;45321;53.200;5.814;2023-07-20T07:04:04;17.70;73.70
59505;DHT22;45321;53.200;5.814;2023-07-20T07:06:36;17.80;72.70
59505;DHT22;45321;53.200;5.814;2023-07-20T07:09:02;17.90;72.10
59505;DHT22;45321;53.200;5.814;2023-07-20T07:11:29;18.00;71.90
59505;DHT22;45321;53.200;5.814;2023-07-20T07:13:54;18.10;71.80
59505;DHT22;45321;53.200;5.814;2023-07-20T07:16:20;18.20;71.40
59505;DHT22;45321;53.200;5.814;2023-07-20T07:18:46;18.20;69.80
59505;DHT22;45321;53.200;5.814;2023-07-20T07:21:12;18.30;70.70
59505;DHT22;45321;53.200;5.814;2023-07-20T07:23:38;18.40;69.50
59505;DHT22;45321;53.200;5.814;2023-07-20T07:26:04;18.40;69.00
59505;DHT22;45321;53.200;5.814;2023-07-20T07:28:30;18.40;68.30
59505;DHT22;45321;53.200;5.814;2023-07-20T07:30:57;18.30;68.10
59505;DHT22;45321;53.200;5.814;2023-07-20T07:33:23;18.30;68.90
59505;DHT22;45321;53.200;5.814;2023-07-20T07:35:52;18.30;69.40
59505;DHT22;45321;53.200;5.814;2023-07-20T07:38:18;18.40;69.80
59505;DHT22;45321;53.200;5.814;2023-07-20T07:40:44;18.50;69.90
59505;DHT22;45321;53.200;5.814;2023-07-20T07:43:10;18.60;70.10
59505;DHT22;45321;53.200;5.814;2023-07-20T07:45:37;18.60;68.30
59505;DHT22;45321;53.200;5.814;2023-07-20T07:48:04;18.70;69.00
59505;DHT22;45321;53.200;5.814;2023-07-20T07:50:29;18.70;69.20
59505;DHT22;45321;53.200;5.814;2023-07-20T07:52:55;18.70;69.90
59505;DHT22;45321;53.200;5.814;2023-07-20T07:55:21;18.80;69.80
59505;DHT22;45321;53.200;5.814;2023-07-20T07:57:48;19.00;70.30
59505;DHT22;45321;53.200;5.814;2023-07-20T08:00:15;19.00;69.90
59505;DHT22;45321;53.200;5.814;2023-07-20T08:02:44;19.20;69.20
59505;DHT22;45321;53.200;5.814;2023-07-20T08:05:12;19.20;66.80
59505;DHT22;45321;53.200;5.814;2023-07-20T08:07:38;19.20;66.90
59505;DHT22;45321;53.200;5.814;2023-07-20T08:10:04;19.20;67.80
59505;DHT22;45321;53.200;5.814;2023-07-20T08:12:30;19.20;68.00
59505;DHT22;45321;53.200;5.814;2023-07-20T08:14:56;19.30;68.10
59505;DHT22;45321;53.200;5.814;2023-07-20T08:17:22;19.40;68.40
59505;DHT22;45321;53.200;5.814;2023-07-20T08:19:47;19.50;65.90
59505;DHT22;45321;53.200;5.814;2023-07-20T08:22:13;19.50;65.80
59505;DHT22;45321;53.200;5.814;2023-07-20T08:24:40;19.60;67.30
59505;DHT22;45321;53.200;5.814;2023-07-20T08:27:06;19.70;66.90
59505;DHT22;45321;53.200;5.814;2023-07-20T08:29:31;19.70;66.20
59505;DHT22;45321;53.200;5.814;2023-07-20T08:31:57;19.70;66.00
59505;DHT22;45321;53.200;5.814;2023-07-20T08:34:23;19.70;65.10
59505;DHT22;45321;53.200;5.814;2023-07-20T08:36:49;19.70;65.40
59505;DHT22;45321;53.200;5.814;2023-07-20T08:39:14;19.60;64.70
59505;DHT22;45321;53.200;5.814;2023-07-20T08:41:42;19.50;66.00
59505;DHT22;45321;53.200;5.814;2023-07-20T08:44:09;19.60;66.90
59505;DHT22;45321;53.200;5.814;2023-07-20T08:46:38;19.70;67.10
59505;DHT22;45321;53.200;5.814;2023-07-20T08:49:04;19.70;66.30
59505;DHT22;45321;53.200;5.814;2023-07-20T08:51:30;19.80;66.40
59505;DHT22;45321;53.200;5.814;2023-07-20T08:53:58;19.80;67.00
59505;DHT22;45321;53.200;5.814;2023-07-20T08:56:25;19.90;67.10
59505;DHT22;45321;53.200;5.814;2023-07-20T08:58:55;20.00;65.90
59505;DHT22;45321;53.200;5.814;2023-07-20T09:01:22;20.00;64.20
59505;DHT22;45321;53.200;5.814;2023-07-20T09:03:48;20.00;64.10
59505;DHT22;45321;53.200;5.814;2023-07-20T09:06:14;19.90;63.10
59505;DHT22;45321;53.200;5.814;2023-07-20T09:08:43;19.80;64.30
59505;DHT22;45321;53.200;5.814;2023-07-20T09:11:12;19.70;64.00
59505;DHT22;45321;53.200;5.814;2023-07-20T09:13:39;19.70;63.70
59505;DHT22;45321;53.200;5.814;2023-07-20T09:16:05;19.60;64.10
59505;DHT22;45321;53.200;5.814;2023-07-20T09:18:31;19.70;65.00
59505;DHT22;45321;53.200;5.814;2023-07-20T09:21:05;19.70;65.20
59505;DHT22;45321;53.200;5.814;2023-07-20T09:23:38;19.80;64.40
59505;DHT22;45321;53.200;5.814;2023-07-20T09:26:14;20.00;64.40
59505;DHT22;45321;53.200;5.814;2023-07-20T09:28:52;20.10;64.00
59505;DHT22;45321;53.200;5.814;2023-07-20T09:31:20;20.10;63.80
59505;DHT22;45321;53.200;5.814;2023-07-20T09:33:46;20.10;62.30
59505;DHT22;45321;53.200;5.814;2023-07-20T09:36:13;20.00;62.70
59505;DHT22;45321;53.200;5.814;2023-07-20T09:38:41;20.00;61.70
59505;DHT22;45321;53.200;5.814;2023-07-20T09:41:07;19.80;61.90
59505;DHT22;45321;53.200;5.814;2023-07-20T09:43:36;19.70;61.50
59505;DHT22;45321;53.200;5.814;2023-07-20T09:46:02;19.70;63.20
59505;DHT22;45321;53.200;5.814;2023-07-20T09:48:29;19.70;64.10
59505;DHT22;45321;53.200;5.814;2023-07-20T09:50:56;19.90;64.10
59505;DHT22;45321;53.200;5.814;2023-07-20T09:53:24;20.00;64.40
59505;DHT22;45321;53.200;5.814;2023-07-20T09:55:51;20.20;63.10
59505;DHT22;45321;53.200;5.814;2023-07-20T09:58:17;20.20;64.20
59505;DHT22;45321;53.200;5.814;2023-07-20T10:00:44;20.30;60.90
59505;DHT22;45321;53.200;5.814;2023-07-20T10:03:16;20.30;63.30
59505;DHT22;45321;53.200;5.814;2023-07-20T10:05:47;20.50;61.80
59505;DHT22;45321;53.200;5.814;2023-07-20T10:08:16;20.60;61.50
59505;DHT22;45321;53.200;5.814;2023-07-20T10:10:42;20.60;62.30
59505;DHT22;45321;53.200;5.814;2023-07-20T10:13:20;20.70;62.50
59505;DHT22;45321;53.200;5.814;2023-07-20T10:15:50;20.70;62.40
59505;DHT22;45321;53.200;5.814;2023-07-20T10:20:51;20.90;61.30
59505;DHT22;45321;53.200;5.814;2023-07-20T10:23:19;21.00;62.40
59505;DHT22;45321;53.200;5.814;2023-07-20T10:25:46;21.10;60.70
59505;DHT22;45321;53.200;5.814;2023-07-20T10:28:13;21.20;62.00
59505;DHT22;45321;53.200;5.814;2023-07-20T10:30:40;21.20;60.40
59505;DHT22;45321;53.200;5.814;2023-07-20T10:33:07;21.30;61.50
59505;DHT22;45321;53.200;5.814;2023-07-20T10:35:54;21.30;61.50
59505;DHT22;45321;53.200;5.814;2023-07-20T10:38:20;21.20;60.70
59505;DHT22;45321;53.200;5.814;2023-07-20T10:40:55;21.20;60.70
59505;DHT22;45321;53.200;5.814;2023-07-20T10:43:21;21.10;59.50
59505;DHT22;45321;53.200;5.814;2023-07-20T10:45:52;20.90;59.10
59505;DHT22;45321;53.200;5.814;2023-07-20T10:48:18;20.90;61.00
59505;DHT22;45321;53.200;5.814;2023-07-20T10:50:46;21.10;60.70
59505;DHT22;45321;53.200;5.814;2023-07-20T10:53:19;21.00;59.20
59505;DHT22;45321;53.200;5.814;2023-07-20T10:55:44;21.00;58.40
59505;DHT22;45321;53.200;5.814;2023-07-20T10:58:13;20.80;58.40
59505;DHT22;45321;53.200;5.814;2023-07-20T11:01:01;20.80;58.70
59505;DHT22;45321;53.200;5.814;2023-07-20T11:03:32;20.70;58.90
59505;DHT22;45321;53.200;5.814;2023-07-20T11:05:59;20.70;59.00
59505;DHT22;45321;53.200;5.814;2023-07-20T11:08:43;20.70;59.20
59505;DHT22;45321;53.200;5.814;2023-07-20T11:11:46;20.70;60.10
59505;DHT22;45321;53.200;5.814;2023-07-20T11:14:22;20.60;59.50
59505;DHT22;45321;53.200;5.814;2023-07-20T11:16:49;20.60;60.20
59505;DHT22;45321;53.200;5.814;2023-07-20T11:19:25;20.60;60.30
59505;DHT22;45321;53.200;5.814;2023-07-20T11:21:53;20.60;61.10
59505;DHT22;45321;53.200;5.814;2023-07-20T11:24:19;20.70;60.90
59505;DHT22;45321;53.200;5.814;2023-07-20T11:26:52;20.70;59.80
59505;DHT22;45321;53.200;5.814;2023-07-20T11:29:19;20.80;60.90
59505;DHT22;45321;53.200;5.814;2023-07-20T11:31:46;21.10;61.60
59505;DHT22;45321;53.200;5.814;2023-07-20T11:34:17;21.40;60.50
59505;DHT22;45321;53.200;5.814;2023-07-20T11:36:48;21.70;58.10
59505;DHT22;45321;53.200;5.814;2023-07-20T11:39:18;22.00;57.80
59505;DHT22;45321;53.200;5.814;2023-07-20T11:41:52;22.30;55.30
59505;DHT22;45321;53.200;5.814;2023-07-20T11:44:19;22.50;53.30
59505;DHT22;45321;53.200;5.814;2023-07-20T11:46:46;22.70;55.10
59505;DHT22;45321;53.200;5.814;2023-07-20T11:49:12;22.70;52.50
59505;DHT22;45321;53.200;5.814;2023-07-20T11:51:40;22.70;55.20
59505;DHT22;45321;53.200;5.814;2023-07-20T11:54:07;22.60;52.90
59505;DHT22;45321;53.200;5.814;2023-07-20T11:56:33;22.70;55.40
59505;DHT22;45321;53.200;5.814;2023-07-20T11:59:00;22.70;53.10
59505;DHT22;45321;53.200;5.814;2023-07-20T12:01:27;22.70;53.20
59505;DHT22;45321;53.200;5.814;2023-07-20T12:03:59;22.70;52.90
59505;DHT22;45321;53.200;5.814;2023-07-20T12:06:25;22.70;53.50
59505;DHT22;45321;53.200;5.814;2023-07-20T12:08:54;22.70;51.10
59505;DHT22;45321;53.200;5.814;2023-07-20T12:11:35;22.80;54.20
59505;DHT22;45321;53.200;5.814;2023-07-20T12:14:01;22.90;53.00
59505;DHT22;45321;53.200;5.814;2023-07-20T12:16:28;23.00;51.40
59505;DHT22;45321;53.200;5.814;2023-07-20T12:21:27;23.10;51.40
59505;DHT22;45321;53.200;5.814;2023-07-20T12:23:54;23.10;50.60
59505;DHT22;45321;53.200;5.814;2023-07-20T12:26:21;23.20;51.30
59505;DHT22;45321;53.200;5.814;2023-07-20T12:28:49;23.20;49.30
59505;DHT22;45321;53.200;5.814;2023-07-20T12:31:15;23.20;49.90
59505;DHT22;45321;53.200;5.814;2023-07-20T12:33:41;23.20;47.90
59505;DHT22;45321;53.200;5.814;2023-07-20T12:36:09;23.30;50.30
59505;DHT22;45321;53.200;5.814;2023-07-20T12:38:36;23.30;51.00
59505;DHT22;45321;53.200;5.814;2023-07-20T12:41:02;23.40;49.30
59505;DHT22;45321;53.200;5.814;2023-07-20T12:43:28;23.50;49.90
59505;DHT22;45321;53.200;5.814;2023-07-20T12:45:55;23.50;51.00
59505;DHT22;45321;53.200;5.814;2023-07-20T12:48:22;23.60;50.80
59505;DHT22;45321;53.200;5.814;2023-07-20T12:50:47;23.60;46.10
59505;DHT22;45321;53.200;5.814;2023-07-20T12:53:13;23.70;48.00
59505;DHT22;45321;53.200;5.814;2023-07-20T12:55:39;23.70;44.80
59505;DHT22;45321;53.200;5.814;2023-07-20T12:58:07;23.70;47.70
59505;DHT22;45321;53.200;5.814;2023-07-20T13:00:32;23.70;46.60
59505;DHT22;45321;53.200;5.814;2023-07-20T13:02:58;23.80;47.00
59505;DHT22;45321;53.200;5.814;2023-07-20T13:05:24;23.90;46.40
59505;DHT22;45321;53.200;5.814;2023-07-20T13:07:50;23.90;47.60
59505;DHT22;45321;53.200;5.814;2023-07-20T13:10:15;24.00;49.10
59505;DHT22;45321;53.200;5.814;2023-07-20T13:12:41;24.10;48.00
59505;DHT22;45321;53.200;5.814;2023-07-20T13:15:08;24.10;50.30
59505;DHT22;45321;53.200;5.814;2023-07-20T13:17:38;24.20;46.90
59505;DHT22;45321;53.200;5.814;2023-07-20T13:20:08;24.20;46.50
59505;DHT22;45321;53.200;5.814;2023-07-20T13:22:36;24.20;46.50
59505;DHT22;45321;53.200;5.814;2023-07-20T13:25:02;24.30;46.90
59505;DHT22;45321;53.200;5.814;2023-07-20T13:27:28;24.30;45.90
59505;DHT22;45321;53.200;5.814;2023-07-20T13:29:54;24.40;48.20
59505;DHT22;45321;53.200;5.814;2023-07-20T13:32:19;24.50;47.30
59505;DHT22;45321;53.200;5.814;2023-07-20T13:34:45;24.50;47.10
59505;DHT22;45321;53.200;5.814;2023-07-20T13:37:11;24.60;45.30
59505;DHT22;45321;53.200;5.814;2023-07-20T13:39:38;24.50;43.00
59505;DHT22;45321;53.200;5.814;2023-07-20T13:42:04;24.50;42.90
59505;DHT22;45321;53.200;5.814;2023-07-20T13:44:33;24.40;44.70
59505;DHT22;45321;53.200;5.814;2023-07-20T13:47:00;24.50;44.90
59505;DHT22;45321;53.200;5.814;2023-07-20T13:49:26;24.50;45.00
59505;DHT22;45321;53.200;5.814;2023-07-20T13:51:52;24.50;45.00
59505;DHT22;45321;53.200;5.814;2023-07-20T13:54:18;24.50;45.80
59505;DHT22;45321;53.200;5.814;2023-07-20T13:56:43;24.60;44.90
59505;DHT22;45321;53.200;5.814;2023-07-20T13:59:09;24.60;42.60
59505;DHT22;45321;53.200;5.814;2023-07-20T14:01:35;24.70;43.10
59505;DHT22;45321;53.200;5.814;2023-07-20T14:04:02;24.70;43.50
59505;DHT22;45321;53.200;5.814;2023-07-20T14:06:33;24.70;46.00
59505;DHT22;45321;53.200;5.814;2023-07-20T14:08:59;24.80;47.60
59505;DHT22;45321;53.200;5.814;2023-07-20T14:11:25;24.90;48.10
59505;DHT22;45321;53.200;5.814;2023-07-20T14:13:51;25.00;46.70
59505;DHT22;45321;53.200;5.814;2023-07-20T14:16:19;25.00;47.10
59505;DHT22;45321;53.200;5.814;2023-07-20T14:18:45;25.00;48.20
59505;DHT22;45321;53.200;5.814;2023-07-20T14:21:18;24.90;48.50
59505;DHT22;45321;53.200;5.814;2023-07-20T14:23:46;25.00;50.80
59505;DHT22;45321;53.200;5.814;2023-07-20T14:26:12;25.00;48.90
59505;DHT22;45321;53.200;5.814;2023-07-20T14:28:38;25.10;48.40
59505;DHT22;45321;53.200;5.814;2023-07-20T14:31:04;25.20;48.60
59505;DHT22;45321;53.200;5.814;2023-07-20T14:33:30;25.40;47.10
59505;DHT22;45321;53.200;5.814;2023-07-20T14:35:56;25.40;47.20
59505;DHT22;45321;53.200;5.814;2023-07-20T14:38:22;25.60;47.10
59505;DHT22;45321;53.200;5.814;2023-07-20T14:40:48;25.80;47.20
59505;DHT22;45321;53.200;5.814;2023-07-20T14:43:13;26.00;46.80
59505;DHT22;45321;53.200;5.814;2023-07-20T14:45:41;26.20;46.00
59505;DHT22;45321;53.200;5.814;2023-07-20T14:48:07;26.20;44.50
59505;DHT22;45321;53.200;5.814;2023-07-20T14:50:33;26.30;45.90
59505;DHT22;45321;53.200;5.814;2023-07-20T14:52:59;26.10;44.70
59505;DHT22;45321;53.200;5.814;2023-07-20T14:55:25;25.70;45.80
59505;DHT22;45321;53.200;5.814;2023-07-20T14:57:51;25.70;45.50
59505;DHT22;45321;53.200;5.814;2023-07-20T15:00:17;26.00;46.60
59505;DHT22;45321;53.200;5.814;2023-07-20T15:02:43;26.20;47.20
59505;DHT22;45321;53.200;5.814;2023-07-20T15:05:10;26.50;45.50
59505;DHT22;45321;53.200;5.814;2023-07-20T15:07:36;26.50;44.50
59505;DHT22;45321;53.200;5.814;2023-07-20T15:10:03;26.30;47.10
59505;DHT22;45321;53.200;5.814;2023-07-20T15:12:29;26.20;46.40
59505;DHT22;45321;53.200;5.814;2023-07-20T15:15:07;26.00;46.00
59505;DHT22;45321;53.200;5.814;2023-07-20T15:17:36;25.70;46.40
59505;DHT22;45321;53.200;5.814;2023-07-20T15:20:03;25.50;45.50
59505;DHT22;45321;53.200;5.814;2023-07-20T15:22:32;25.30;46.60
59505;DHT22;45321;53.200;5.814;2023-07-20T15:24:58;25.20;47.00
59505;DHT22;45321;53.200;5.814;2023-07-20T15:27:24;25.10;48.60
59505;DHT22;45321;53.200;5.814;2023-07-20T15:29:50;25.00;47.20
59505;DHT22;45321;53.200;5.814;2023-07-20T15:32:17;24.90;47.40
59505;DHT22;45321;53.200;5.814;2023-07-20T15:34:44;24.70;48.50
59505;DHT22;45321;53.200;5.814;2023-07-20T15:37:11;24.70;48.10
59505;DHT22;45321;53.200;5.814;2023-07-20T15:39:37;24.70;48.70
59505;DHT22;45321;53.200;5.814;2023-07-20T15:42:03;24.70;48.50
59505;DHT22;45321;53.200;5.814;2023-07-20T15:44:29;24.70;48.50